Time;durP1;ratioP1;P1;durP2;ratioP2;P2;SDS_P1;SDS_P2;PMS_P1;PMS_P2;Temp;Humidity;BMP_temperature;BMP_pressure;BME280_temperature;BME280_humidity;BME280_pressure;Samples;Min_cycle;Max_cycle;Signal;HPM_P1;HPM_P2
2022/10/16 00:02:17;;;;;;;27.10;16.85;;;;;;;12.74;81.95;100238.26;2065265;85;29953;-64
2022/10/16 00:05:18;;;;;;;21.60;15.30;;;;;;;12.72;81.88;100237.97;2035439;86;27695;-66
2022/10/16 00:08:19;;;;;;;20.72;14.58;;;;;;;12.70;81.98;100243.42;2073030;85;29155;-66
2022/10/16 00:11:33;;;;;;;18.98;14.05;;;;;;;12.70;81.98;100237.20;2027439;86;31422;-65
2022/10/16 00:14:35;;;;;;;15.18;11.68;;;;;;;12.68;81.97;100246.67;2011276;86;33545;-66
2022/10/16 00:17:36;;;;;;;16.82;12.70;;;;;;;12.68;82.04;100248.02;2008087;87;29777;-65
2022/10/16 00:20:37;;;;;;;13.40;10.60;;;;;;;12.66;81.95;100249.92;2027008;86;27633;-65
2022/10/16 00:23:39;;;;;;;16.15;10.68;;;;;;;12.65;82.16;100244.20;2047355;85;29078;-64
2022/10/16 00:26:40;;;;;;;12.03;9.78;;;;;;;12.64;82.11;100247.84;2048169;86;32355;-65
2022/10/16 00:29:42;;;;;;;14.00;9.50;;;;;;;12.63;82.13;100242.53;2071111;84;34243;-63
2022/10/16 00:32:43;;;;;;;10.35;8.53;;;;;;;12.60;82.10;100247.63;2060761;85;29792;-65
2022/10/16 00:35:44;;;;;;;12.73;9.45;;;;;;;12.56;82.08;100242.92;2051952;85;27706;-63
2022/10/16 00:38:46;;;;;;;11.75;7.75;;;;;;;12.53;82.20;100246.23;2025979;86;29416;-63
2022/10/16 00:41:48;;;;;;;13.32;10.38;;;;;;;12.51;82.13;100248.14;2065478;85;31066;-64
2022/10/16 00:44:57;;;;;;;18.40;11.38;;;;;;;12.47;82.15;100246.12;2066564;85;34122;-64
2022/10/16 00:47:58;;;;;;;12.80;9.45;;;;;;;12.44;82.32;100241.81;2056945;85;29604;-65
2022/10/16 00:51:00;;;;;;;10.75;8.30;;;;;;;12.42;82.40;100245.06;2061261;85;27807;-64
2022/10/16 00:54:04;;;;;;;10.00;8.00;;;;;;;12.44;82.65;100246.30;2064834;85;28648;-65
2022/10/16 00:57:07;;;;;;;11.10;7.45;;;;;;;12.47;82.72;100240.75;2074226;84;32059;-65
2022/10/16 01:00:13;;;;;;;11.33;8.35;;;;;;;12.49;82.81;100241.53;2055797;85;33369;-64
2022/10/16 01:03:31;;;;;;;9.53;7.47;;;;;;;12.52;82.88;100237.33;2047028;85;30126;-65
2022/10/16 01:07:02;;;;;;;9.78;7.40;;;;;;;12.56;83.00;100233.97;2041998;85;27658;-65
2022/10/16 01:10:40;;;;;;;10.58;7.42;;;;;;;12.60;83.00;100240.91;2067542;84;29134;-65
2022/10/16 01:13:46;;;;;;;10.48;6.92;;;;;;;12.63;82.98;100236.70;2057956;85;32341;-64
2022/10/16 01:17:08;;;;;;;10.43;7.15;;;;;;;12.65;82.97;100241.51;2061981;84;33399;-64
2022/10/16 01:20:34;;;;;;;8.95;5.95;;;;;;;12.68;82.96;100244.48;1994174;88;30449;-65
2022/10/16 01:24:04;;;;;;;10.25;6.22;;;;;;;12.69;83.03;100239.49;2040764;85;27843;-65
2022/10/16 01:27:26;;;;;;;8.83;6.22;;;;;;;12.71;83.07;100239.78;2040937;85;29171;-65
2022/10/16 01:30:31;;;;;;;8.08;6.22;;;;;;;12.75;83.03;100249.86;2045434;85;31004;-64
2022/10/16 01:33:46;;;;;;;11.03;7.03;;;;;;;12.79;83.07;100247.88;2068085;85;33426;-65
2022/10/16 01:37:01;;;;;;;10.55;6.92;;;;;;;12.81;83.04;100252.19;2044695;84;30282;-64
2022/10/16 01:40:07;;;;;;;8.78;6.90;;;;;;;12.85;83.01;100251.06;2033444;85;27640;-64
2022/10/16 01:43:22;;;;;;;8.10;7.03;;;;;;;12.86;82.94;100243.84;2037699;85;29047;-65
2022/10/16 01:46:25;;;;;;;14.38;7.08;;;;;;;12.86;82.85;100233.09;2035169;86;31944;-66
2022/10/16 01:49:31;;;;;;;7.75;6.47;;;;;;;12.85;82.77;100238.08;2041701;85;33044;-64
2022/10/16 01:52:36;;;;;;;11.55;7.20;;;;;;;12.82;82.83;100243.17;2029891;86;30097;-65
2022/10/16 01:55:44;;;;;;;7.37;6.65;;;;;;;12.82;82.87;100248.55;2043625;85;27597;-64
2022/10/16 01:58:53;;;;;;;11.40;7.58;;;;;;;12.82;83.04;100248.55;2033796;85;28757;-65
2022/10/16 02:01:58;;;;;;;8.93;7.45;;;;;;;12.83;83.03;100248.05;2062089;85;32225;-64
2022/10/16 02:05:26;;;;;;;10.48;7.35;;;;;;;12.85;83.09;100252.41;2054546;85;33783;-64
2022/10/16 02:08:29;;;;;;;10.38;7.95;;;;;;;12.88;83.04;100258.95;2050240;86;30238;-64
2022/10/16 02:11:31;;;;;;;8.70;7.08;;;;;;;12.90;83.12;100258.38;2070655;83;28552;-64
2022/10/16 02:14:33;;;;;;;8.68;7.53;;;;;;;12.92;83.15;100256.93;2067127;83;28695;-63
2022/10/16 02:17:34;;;;;;;9.03;7.60;;;;;;;12.94;83.17;100257.70;2057757;84;31003;-64
2022/10/16 02:20:52;;;;;;;12.00;7.83;;;;;;;12.97;83.14;100260.68;2042849;84;33376;-65
2022/10/16 02:24:05;;;;;;;9.23;7.67;;;;;;;13.03;83.27;100265.70;2036620;85;29707;-64
2022/10/16 02:27:17;;;;;;;9.15;7.70;;;;;;;13.03;83.27;100265.70;2087651;83;28251;-64
2022/10/16 02:30:35;;;;;;;8.93;7.67;;;;;;;13.04;83.00;100258.02;2049343;83;29835;-64
2022/10/16 02:33:39;;;;;;;9.75;7.12;;;;;;;13.05;82.94;100266.48;2051018;85;32234;-64
2022/10/16 02:36:42;;;;;;;10.53;7.87;;;;;;;13.06;82.88;100275.78;2067395;84;33464;-64
2022/10/16 02:39:44;;;;;;;11.12;7.37;;;;;;;12.93;82.78;100262.70;2028383;86;29359;-64
2022/10/16 02:42:47;;;;;;;8.55;7.33;;;;;;;12.93;82.78;100262.70;1979551;88;27779;-66
2022/10/16 02:45:48;;;;;;;8.25;7.20;;;;;;;13.05;82.75;100291.53;2063234;85;28591;-66
2022/10/16 02:48:49;;;;;;;8.28;7.42;;;;;;;13.05;82.71;100283.46;2078585;85;32250;-67
2022/10/16 02:51:50;;;;;;;10.68;8.05;;;;;;;13.05;82.68;100275.39;2073351;85;34150;-67
2022/10/16 02:54:52;;;;;;;12.37;8.38;;;;;;;13.03;82.59;100274.62;2057146;85;29650;-65
2022/10/16 02:57:54;;;;;;;13.13;8.30;;;;;;;13.02;82.58;100276.06;2073412;85;27628;-68
2022/10/16 03:00:56;;;;;;;9.48;7.50;;;;;;;12.98;82.55;100284.81;2069353;84;28549;-65
2022/10/16 03:03:57;;;;;;;9.35;7.72;;;;;;;12.94;82.50;100282.37;2067326;85;31083;-66
2022/10/16 03:07:02;;;;;;;8.85;7.70;;;;;;;12.90;82.60;100282.58;2063869;85;33388;-65
2022/10/16 03:10:05;;;;;;;10.15;7.80;;;;;;;12.87;82.58;100284.10;2062373;85;30717;-66
2022/10/16 03:13:07;;;;;;;9.85;7.95;;;;;;;12.86;82.60;100283.71;2055673;86;27670;-67
2022/10/16 03:16:08;;;;;;;12.03;8.03;;;;;;;12.84;82.62;100295.03;2042177;85;29077;-66
2022/10/16 03:19:09;;;;;;;11.63;7.65;;;;;;;12.83;82.72;100297.80;2031626;84;31951;-66
2022/10/16 03:22:11;;;;;;;10.15;7.45;;;;;;;12.74;82.74;100285.80;2059887;86;33379;-66
2022/10/16 03:25:12;;;;;;;8.20;7.33;;;;;;;12.80;82.75;100298.85;2032870;85;29082;-68
2022/10/16 03:28:13;;;;;;;10.58;7.17;;;;;;;12.82;82.84;100306.35;2048173;85;27595;-70
2022/10/16 03:31:14;;;;;;;12.20;7.78;;;;;;;12.82;82.86;100302.32;2047252;85;28826;-67
2022/10/16 03:34:16;;;;;;;10.08;7.95;;;;;;;12.82;82.88;100294.75;2055653;84;31466;-66
2022/10/16 03:37:17;;;;;;;12.40;7.95;;;;;;;12.84;82.93;100295.49;2053487;85;33394;-67
2022/10/16 03:40:18;;;;;;;12.23;7.17;;;;;;;12.83;82.90;100293.76;2033377;85;30230;-65
2022/10/16 03:43:20;;;;;;;9.20;7.37;;;;;;;12.71;83.12;100279.25;2046152;86;27784;-67
2022/10/16 03:46:21;;;;;;;8.13;7.28;;;;;;;12.71;83.12;100279.25;2049841;86;29093;-64
2022/10/16 03:49:22;;;;;;;13.05;7.62;;;;;;;12.85;83.30;100307.98;2045708;86;32070;-64
2022/10/16 03:52:23;;;;;;;12.63;8.00;;;;;;;12.89;83.43;100311.77;2057375;85;33512;-64
2022/10/16 03:55:25;;;;;;;9.15;7.60;;;;;;;12.94;83.57;100315.52;2054257;86;29734;-65
2022/10/16 03:58:26;;;;;;;12.23;8.30;;;;;;;12.99;83.70;100309.86;2056919;85;27731;-65
2022/10/16 04:01:28;;;;;;;16.23;8.58;;;;;;;13.03;83.73;100307.38;2046179;85;29138;-66
2022/10/16 04:04:31;;;;;;;12.30;7.95;;;;;;;13.07;83.82;100308.94;2066861;84;27788;-64
2022/10/16 04:07:32;;;;;;;15.88;8.90;;;;;;;13.12;83.84;100310.85;2052035;84;33520;-65
2022/10/16 04:10:34;;;;;;;11.60;8.33;;;;;;;13.15;84.01;100309.33;2044170;86;30560;-64
2022/10/16 04:13:35;;;;;;;10.85;8.10;;;;;;;13.18;83.83;100315.88;2054952;85;27837;-65
2022/10/16 04:16:36;;;;;;;16.07;7.92;;;;;;;13.21;83.89;100314.34;2038895;86;29123;-64
2022/10/16 04:19:37;;;;;;;11.40;8.55;;;;;;;13.26;83.89;100315.88;2042153;85;31213;-64
2022/10/16 04:22:38;;;;;;;16.20;8.13;;;;;;;13.28;83.87;100317.53;2041927;84;34187;-65
2022/10/16 04:25:40;;;;;;;10.68;8.08;;;;;;;13.31;83.87;100324.54;2049073;85;29345;-66
2022/10/16 04:28:41;;;;;;;12.95;8.83;;;;;;;13.33;83.77;100321.28;2034791;85;27757;-66
2022/10/16 04:31:42;;;;;;;9.40;7.55;;;;;;;13.32;83.72;100320.39;2062506;85;29370;-64
2022/10/16 04:34:44;;;;;;;10.82;8.20;;;;;;;13.30;83.60;100318.30;2050796;85;31520;-65
2022/10/16 04:37:45;;;;;;;11.22;8.13;;;;;;;13.27;83.51;100319.83;2031893;85;33381;-64
2022/10/16 04:40:47;;;;;;;10.40;7.40;;;;;;;13.24;83.45;100329.43;2046982;85;29784;-66
2022/10/16 04:43:48;;;;;;;9.03;7.47;;;;;;;13.22;83.43;100334.03;2056510;85;27705;-65
2022/10/16 04:46:52;;;;;;;10.48;8.15;;;;;;;13.20;83.48;100342.20;2046242;85;28621;-66
2022/10/16 04:49:53;;;;;;;10.18;7.70;;;;;;;13.20;83.48;100342.20;2051001;85;31489;-65
2022/10/16 04:52:55;;;;;;;9.08;8.08;;;;;;;13.18;83.64;100327.98;2047389;86;33822;-65
2022/10/16 04:55:57;;;;;;;11.03;7.53;;;;;;;13.19;83.73;100332.41;2045789;84;30172;-66
2022/10/16 04:58:58;;;;;;;11.30;7.20;;;;;;;13.19;83.51;100331.52;2059691;86;27904;-64
2022/10/16 05:01:59;;;;;;;10.88;7.83;;;;;;;13.21;84.02;100334.52;2042519;85;28859;-64
2022/10/16 05:05:01;;;;;;;11.35;8.08;;;;;;;13.24;83.71;100344.23;2044466;86;31200;-64
2022/10/16 05:08:03;;;;;;;9.63;7.05;;;;;;;13.24;83.71;100344.23;2051358;85;33905;-65
2022/10/16 05:11:05;;;;;;;9.50;8.05;;;;;;;13.27;83.77;100341.81;2051314;85;29467;-64
2022/10/16 05:14:06;;;;;;;10.63;7.65;;;;;;;13.27;83.72;100340.01;2034383;85;27698;-64
2022/10/16 05:17:07;;;;;;;10.32;7.67;;;;;;;13.29;83.65;100344.82;2051501;85;28674;-64
2022/10/16 05:20:09;;;;;;;10.90;7.62;;;;;;;13.16;83.58;100322.28;2047006;85;31422;-66
2022/10/16 05:23:11;;;;;;;9.15;7.30;;;;;;;13.29;83.57;100350.67;2052934;84;33827;-65
2022/10/16 05:26:13;;;;;;;9.43;7.72;;;;;;;13.23;83.54;100349.22;2041731;85;29317;-66
2022/10/16 05:29:15;;;;;;;8.05;6.83;;;;;;;13.29;83.58;100356.93;2039239;85;27797;-66
2022/10/16 05:32:18;;;;;;;9.43;7.70;;;;;;;13.30;83.55;100349.25;2046896;85;28850;-65
2022/10/16 05:35:20;;;;;;;11.55;9.73;;;;;;;13.31;83.36;100363.55;2041622;86;30914;-65
2022/10/16 05:38:22;;;;;;;13.70;10.93;;;;;;;13.30;83.54;100358.66;2055532;85;33250;-65
2022/10/16 05:41:25;;;;;;;11.25;8.98;;;;;;;13.30;83.54;100358.66;2053982;85;29823;-64
2022/10/16 05:44:26;;;;;;;11.60;8.90;;;;;;;13.31;83.60;100362.20;2050202;86;27681;-65
2022/10/16 05:47:28;;;;;;;11.55;9.10;;;;;;;13.34;83.67;100370.95;2028683;86;29087;-66
2022/10/16 05:50:29;;;;;;;13.38;8.48;;;;;;;13.35;83.67;100364.61;2041006;85;31422;-65
2022/10/16 05:53:33;;;;;;;10.63;8.38;;;;;;;13.38;83.73;100368.47;2051467;85;33417;-65
2022/10/16 05:56:34;;;;;;;23.02;17.10;;;;;;;13.43;83.73;100366.02;2050953;84;29405;-64
2022/10/16 05:59:38;;;;;;;13.55;12.13;;;;;;;13.46;83.71;100369.88;2041839;85;27633;-66
2022/10/16 06:02:39;;;;;;;13.53;10.23;;;;;;;13.50;83.70;100370.94;2046573;86;29284;-67
2022/10/16 06:05:42;;;;;;;11.12;9.08;;;;;;;13.56;83.71;100379.61;2043049;85;31011;-65
2022/10/16 06:08:45;;;;;;;12.37;8.68;;;;;;;13.60;83.71;100385.16;2037268;85;34163;-66
2022/10/16 06:11:47;;;;;;;10.93;7.90;;;;;;;13.66;83.70;100395.57;2030112;84;29406;-67
2022/10/16 06:14:48;;;;;;;11.48;9.28;;;;;;;13.71;83.67;100389.44;2018962;85;28111;-65
2022/10/16 06:17:49;;;;;;;15.55;9.75;;;;;;;13.75;83.67;100384.72;2046450;86;29573;-65
2022/10/16 06:20:51;;;;;;;11.73;8.03;;;;;;;13.84;83.64;100398.95;2037778;85;31088;-66
2022/10/16 06:23:58;;;;;;;12.78;7.92;;;;;;;13.81;83.45;100378.47;2055723;85;32920;-65
2022/10/16 06:26:59;;;;;;;10.08;7.72;;;;;;;13.88;83.62;100378.95;2061371;85;30316;-65
2022/10/16 06:30:03;;;;;;;8.73;7.30;;;;;;;14.08;83.55;100406.47;2052914;84;28047;-65
2022/10/16 06:33:05;;;;;;;11.20;8.28;;;;;;;14.16;83.59;100413.58;2045331;86;28825;-64
2022/10/16 06:36:14;;;;;;;10.55;7.92;;;;;;;14.24;83.52;100415.32;2053772;85;31134;-64
2022/10/16 06:39:22;;;;;;;11.53;8.83;;;;;;;14.28;83.42;100406.55;2046394;84;33374;-65
2022/10/16 06:42:24;;;;;;;10.38;8.43;;;;;;;14.31;83.38;100401.47;2058622;83;29373;-65
2022/10/16 06:45:55;;;;;;;10.00;8.30;;;;;;;14.51;83.44;100422.59;2054353;84;27748;-65
2022/10/16 06:48:48;;;;;;;12.07;6.83;;;;;;;14.61;83.43;100428.27;2045960;84;28829;-66
2022/10/16 06:51:52;;;;;;;11.43;8.05;;;;;;;14.74;83.42;100427.88;2048571;83;31559;-65
2022/10/16 06:54:53;;;;;;;;;;;;;;;14.87;83.50;100430.64;2036008;85;31963;-66
2022/10/16 06:57:55;;;;;;;10.55;7.95;;;;;;;15.01;83.36;100427.05;2048452;85;27735;-66
2022/10/16 07:00:59;;;;;;;10.43;7.80;;;;;;;15.12;83.33;100436.25;2020468;86;27722;-65
2022/10/16 07:04:01;;;;;;;7.58;6.47;;;;;;;15.20;83.11;100439.31;2023436;86;28617;-65
2022/10/16 07:07:03;;;;;;;8.68;6.42;;;;;;;15.28;82.95;100446.89;1931759;90;31069;-64
2022/10/16 07:10:08;;;;;;;8.53;7.08;;;;;;;15.34;82.79;100447.81;1991622;88;33100;-64
2022/10/16 07:13:18;;;;;;;9.80;6.72;;;;;;;15.38;82.62;100453.39;2009641;87;30214;-67
2022/10/16 07:19:36;;;;;;;6.83;6.17;;;;;;;15.50;82.58;100459.80;1950333;89;29624;-66
2022/10/16 07:22:38;;;;;;;12.63;9.18;;;;;;;15.59;82.63;100467.77;1994361;86;31072;-65
2022/10/16 07:25:40;;;;;;;11.08;9.88;;;;;;;15.69;82.52;100472.06;1997245;87;32780;-66
2022/10/16 07:28:43;;;;;;;8.10;7.15;;;;;;;15.76;82.47;100468.83;2024269;86;29779;-65
2022/10/16 07:31:59;;;;;;;7.15;6.45;;;;;;;15.84;82.30;100468.30;1970022;87;27703;-67
2022/10/16 07:35:16;;;;;;;10.30;7.10;;;;;;;15.97;82.24;100463.41;2007752;87;28161;-69
2022/10/16 07:38:19;;;;;;;13.85;9.78;;;;;;;16.09;82.14;100472.89;1994419;87;30670;-65
2022/10/16 07:41:21;;;;;;;8.45;7.20;;;;;;;16.25;82.20;100475.36;2010878;87;33694;-66
2022/10/16 07:44:23;;;;;;;11.03;5.92;;;;;;;16.40;81.95;100472.53;1999517;86;29886;-68
2022/10/16 07:47:25;;;;;;;6.42;5.80;;;;;;;16.50;81.74;100473.63;1972556;89;28234;-66
2022/10/16 07:50:29;;;;;;;6.92;5.55;;;;;;;16.61;81.77;100466.09;1992623;88;29908;-66
2022/10/16 07:53:31;;;;;;;5.55;5.03;;;;;;;16.71;81.39;100467.14;1956293;89;31516;-67
2022/10/16 07:56:32;;;;;;;6.37;5.42;;;;;;;16.78;81.31;100463.48;1956527;86;33472;-66
2022/10/16 07:59:37;;;;;;;7.83;5.62;;;;;;;16.85;81.09;100469.31;2051290;86;27675;-67
2022/10/16 08:02:39;;;;;;;6.58;5.12;;;;;;;16.90;80.98;100466.27;2054945;85;27730;-66
2022/10/16 08:05:54;;;;;;;6.33;4.80;;;;;;;16.95;80.89;100467.71;2034175;86;29077;-67
2022/10/16 08:08:56;;;;;;;5.72;4.65;;;;;;;17.04;80.99;100471.58;2005231;86;31267;-65
2022/10/16 08:11:57;;;;;;;6.53;5.83;;;;;;;17.14;80.89;100469.02;2050422;86;33852;-66
2022/10/16 08:14:58;;;;;;;8.28;6.92;;;;;;;17.24;80.78;100474.14;2025633;86;29520;-67
2022/10/16 08:18:05;;;;;;;7.55;4.72;;;;;;;17.37;80.59;100474.56;2082125;83;27788;-66
2022/10/16 08:21:08;;;;;;;6.37;4.78;;;;;;;17.46;80.43;100479.27;2064554;85;28687;-66
2022/10/16 08:24:10;;;;;;;5.37;4.45;;;;;;;17.59;80.44;100492.28;2048920;86;31214;-65
2022/10/16 08:27:11;;;;;;;4.87;3.72;;;;;;;17.73;80.27;100505.25;2043521;85;33584;-66
2022/10/16 08:30:13;;;;;;;5.28;4.17;;;;;;;17.84;80.17;100495.80;2046872;86;29734;-65
2022/10/16 08:33:14;;;;;;;6.40;4.75;;;;;;;17.96;79.92;100491.75;2045501;86;27959;-64
2022/10/16 08:36:16;;;;;;;7.80;4.87;;;;;;;18.02;79.16;100495.38;2049816;86;29053;-65
2022/10/16 08:39:17;;;;;;;5.47;4.25;;;;;;;18.03;79.23;100502.53;2048642;86;32254;-65
2022/10/16 08:42:30;;;;;;;6.80;4.65;;;;;;;18.05;79.00;100500.57;2046794;86;33103;-66
2022/10/16 08:45:49;;;;;;;6.67;3.87;;;;;;;18.05;78.83;100504.64;2075050;84;30442;-66
2022/10/16 08:48:54;;;;;;;4.47;3.83;;;;;;;18.05;78.85;100510.06;2059756;85;27896;-66
2022/10/16 08:51:57;;;;;;;7.15;4.53;;;;;;;18.06;78.71;100506.38;2031423;86;29798;-67
2022/10/16 08:54:58;;;;;;;8.78;7.22;;;;;;;18.12;78.81;100515.86;2036462;86;31090;-67
2022/10/16 08:58:00;;;;;;;5.83;4.78;;;;;;;18.21;78.59;100510.59;2037725;86;32988;-67
2022/10/16 09:01:05;;;;;;;5.78;4.58;;;;;;;18.33;78.88;100514.19;2030548;87;29713;-68
2022/10/16 09:04:30;;;;;;;6.60;5.00;;;;;;;18.47;78.65;100520.36;2030584;86;27855;-71
2022/10/16 09:07:38;;;;;;;8.48;5.15;;;;;;;18.55;78.38;100519.23;2023591;87;28724;-70
2022/10/16 09:11:05;;;;;;;6.53;5.03;;;;;;;18.65;78.07;100519.37;2030715;86;31046;-69
2022/10/16 09:14:36;;;;;;;8.33;4.35;;;;;;;18.74;77.97;100516.41;2032921;86;33928;-69
2022/10/16 09:21:15;;;;;;;5.62;4.58;;;;;;;19.00;77.75;100531.12;2004520;88;27793;-68
2022/10/16 09:24:26;;;;;;;5.30;4.35;;;;;;;19.11;77.38;100531.09;2002780;88;29108;-68
2022/10/16 09:27:27;;;;;;;6.60;4.95;;;;;;;19.19;77.22;100523.19;2012423;88;32290;-68
2022/10/16 09:30:29;;;;;;;6.97;4.95;;;;;;;19.28;77.01;100521.06;2016737;88;33859;-67
2022/10/16 09:33:35;;;;;;;6.97;4.75;;;;;;;19.35;76.55;100522.77;2015097;88;29731;-67
2022/10/16 09:36:43;;;;;;;6.47;4.53;;;;;;;19.40;76.26;100530.53;2014934;88;27813;-67
2022/10/16 09:39:47;;;;;;;5.45;4.60;;;;;;;19.42;75.87;100532.63;2015070;88;29510;-69
2022/10/16 09:42:48;;;;;;;;;;;;;;;19.44;75.78;100538.80;2017716;88;31437;-69
2022/10/16 09:46:02;;;;;;;5.30;4.60;;;;;;;19.44;75.69;100535.57;2012624;87;34161;-69
2022/10/16 09:49:25;;;;;;;9.05;6.10;;;;;;;19.43;75.55;100528.44;2064437;84;29758;-68
2022/10/16 09:52:26;;;;;;;10.72;7.58;;;;;;;19.47;75.70;100529.52;2033529;86;27697;-68
2022/10/16 09:55:28;;;;;;;6.17;4.58;;;;;;;19.54;75.43;100526.66;2031489;86;29938;-70
2022/10/16 09:58:29;;;;;;;7.40;6.40;;;;;;;19.61;75.62;100518.85;2057805;85;32195;-69
2022/10/16 10:01:44;;;;;;;8.28;5.42;;;;;;;19.70;75.42;100522.14;2068396;85;33382;-68
2022/10/16 10:04:54;;;;;;;5.35;4.40;;;;;;;19.77;75.37;100523.36;2053054;84;31301;-69
2022/10/16 10:08:05;;;;;;;6.42;4.12;;;;;;;19.88;75.27;100525.20;2053900;86;27732;-67
2022/10/16 10:11:07;;;;;;;9.95;7.03;;;;;;;20.02;75.32;100520.78;2093444;83;29115;-67
2022/10/16 10:14:24;;;;;;;5.12;4.00;;;;;;;20.15;74.84;100517.88;2055575;85;46133;-70
2022/10/16 10:17:27;;;;;;;9.40;3.22;;;;;;;20.28;74.31;100513.56;2061071;85;33099;-68
2022/10/16 10:20:37;;;;;;;3.75;3.42;;;;;;;20.41;74.32;100517.95;2035712;86;29373;-69
2022/10/16 10:23:38;;;;;;;3.70;3.08;;;;;;;20.55;73.90;100513.99;2035070;86;27753;-69
2022/10/16 10:27:13;;;;;;;4.87;3.05;;;;;;;20.68;73.85;100520.58;2023077;86;28701;-70
2022/10/16 10:30:51;;;;;;;3.27;2.75;;;;;;;20.81;73.27;100523.95;2010902;86;31097;-70
2022/10/16 10:34:24;;;;;;;3.20;2.90;;;;;;;20.99;73.34;100525.55;2024784;86;33419;-70
2022/10/16 10:37:33;;;;;;;3.35;2.77;;;;;;;21.14;72.85;100521.91;2031582;86;29730;-69
2022/10/16 10:40:49;;;;;;;10.90;2.45;;;;;;;21.27;71.95;100531.20;2009598;86;27755;-69
2022/10/16 10:43:58;;;;;;;3.08;2.60;;;;;;;21.36;71.58;100531.70;2031857;86;28730;-69
2022/10/16 10:47:54;;;;;;;2.83;2.62;;;;;;;21.44;71.24;100523.33;2050630;84;32300;-70
2022/10/16 10:51:12;;;;;;;3.10;2.40;;;;;;;21.50;70.98;100529.08;2052466;85;34319;-69
2022/10/16 10:54:24;;;;;;;3.40;2.50;;;;;;;21.60;70.70;100524.12;2029504;86;29761;-74
2022/10/16 10:57:31;;;;;;;3.77;2.75;;;;;;;21.66;70.07;100519.50;2033314;86;27731;-68
2022/10/16 11:00:59;;;;;;;5.15;2.33;;;;;;;21.70;69.11;100520.42;2035267;85;29951;-69
2022/10/16 11:04:35;;;;;;;4.95;2.20;;;;;;;21.70;68.82;100511.41;2037597;85;31799;-71
2022/10/16 11:07:41;;;;;;;4.65;2.35;;;;;;;21.74;68.80;100514.69;2034583;85;33487;-74
2022/10/16 11:11:00;;;;;;;4.28;2.02;;;;;;;21.76;68.85;100515.41;2033256;85;30267;-66
2022/10/16 11:14:08;;;;;;;3.30;2.52;;;;;;;21.79;68.43;100511.05;2060438;84;27658;-64
2022/10/16 11:17:20;;;;;;;2.75;2.55;;;;;;;21.82;68.51;100516.21;2052927;85;30856;-72
2022/10/16 11:20:27;;;;;;;2.45;1.98;;;;;;;21.85;68.34;100505.87;2022051;86;32287;-69
2022/10/16 11:23:48;;;;;;;2.20;2.00;;;;;;;21.94;68.21;100501.41;2051117;85;33829;-70
2022/10/16 11:26:52;;;;;;;2.83;2.30;;;;;;;22.08;68.06;100499.23;2037259;85;29345;-71
2022/10/16 11:29:59;;;;;;;3.67;2.15;;;;;;;22.19;67.55;100495.48;2040328;86;28968;-70
2022/10/16 11:33:21;;;;;;;4.42;2.42;;;;;;;22.23;67.06;100488.72;2027721;85;28712;-70
2022/10/16 11:36:36;;;;;;;2.27;2.08;;;;;;;22.23;66.52;100488.20;2076729;84;31881;-74
2022/10/16 11:39:39;;;;;;;2.95;2.40;;;;;;;22.21;66.46;100482.03;2039979;84;33108;-72
2022/10/16 11:42:49;;;;;;;3.77;2.20;;;;;;;22.17;65.94;100494.27;2041853;84;29371;-71
2022/10/16 11:45:54;;;;;;;3.35;2.17;;;;;;;22.14;65.58;100506.31;2059737;85;27689;-71
2022/10/16 11:49:15;;;;;;;2.12;1.92;;;;;;;22.15;65.91;100501.73;2062910;84;28691;-73
2022/10/16 11:52:46;;;;;;;4.22;2.05;;;;;;;22.13;65.82;100494.20;2053681;84;31899;-71
2022/10/16 11:55:47;;;;;;;4.45;2.10;;;;;;;22.11;65.16;100488.87;2047473;84;33045;-68
2022/10/16 11:58:56;;;;;;;2.83;2.27;;;;;;;22.09;65.51;100498.22;2057336;84;30549;-68
2022/10/16 12:02:47;;;;;;;4.37;2.35;;;;;;;22.12;65.68;100487.86;2038004;85;27710;-75
2022/10/16 12:06:20;;;;;;;5.35;2.37;;;;;;;22.16;65.39;100495.27;1991686;86;29213;-69
2022/10/16 12:09:29;;;;;;;3.00;2.20;;;;;;;22.19;65.36;100509.12;2032448;86;31045;-71
2022/10/16 12:12:39;;;;;;;4.60;2.60;;;;;;;22.21;64.98;100509.84;2040138;85;33153;-70
2022/10/16 12:15:41;;;;;;;4.40;2.87;;;;;;;22.24;64.97;100501.36;2022436;86;29419;-73
2022/10/16 12:18:46;;;;;;;2.92;2.62;;;;;;;22.30;65.11;100500.75;1995485;86;27814;-70
2022/10/16 12:21:48;;;;;;;3.92;3.62;;;;;;;22.34;64.61;100516.35;2032821;86;28122;-71
2022/10/16 12:24:52;;;;;;;5.78;2.92;;;;;;;22.36;64.89;100517.03;2020436;86;31074;-72
2022/10/16 12:28:19;;;;;;;7.03;4.50;;;;;;;22.42;64.79;100537.81;2065914;84;33887;-71
2022/10/16 12:31:21;;;;;;;7.20;5.90;;;;;;;22.45;64.86;100541.61;2053758;84;30136;-69
2022/10/16 12:34:43;;;;;;;5.00;4.03;;;;;;;22.48;64.36;100542.33;2062695;85;27733;-71
2022/10/16 12:37:45;;;;;;;7.83;5.40;;;;;;;22.49;64.46;100545.42;2041230;85;28703;-72
2022/10/16 12:40:57;;;;;;;5.00;4.35;;;;;;;22.42;64.38;100542.42;2068586;84;31719;-72
2022/10/16 12:44:03;;;;;;;5.08;4.58;;;;;;;22.40;64.28;100548.01;2047911;85;33085;-68
2022/10/16 12:47:09;;;;;;;5.72;4.53;;;;;;;22.36;64.34;100546.58;2048329;85;30053;-68
2022/10/16 12:50:40;;;;;;;6.90;5.33;;;;;;;22.30;64.14;100552.13;2045599;85;27760;-70
2022/10/16 12:53:42;;;;;;;7.35;5.90;;;;;;;22.28;64.40;100555.98;2038599;86;28699;-73
2022/10/16 12:57:21;;;;;;;9.18;4.75;;;;;;;22.32;64.33;100564.25;2026575;86;31925;-71
2022/10/16 13:00:46;;;;;;;3.87;3.55;;;;;;;22.34;64.09;100558.66;2054175;84;33016;-70
2022/10/16 13:03:59;;;;;;;4.33;3.72;;;;;;;22.38;63.97;100568.25;1996731;86;29611;-71
2022/10/16 13:07:29;;;;;;;6.97;4.60;;;;;;;22.37;63.98;100569.26;2021775;87;27905;-68
2022/10/16 13:10:41;;;;;;;4.83;4.05;;;;;;;22.35;63.60;100570.78;2015549;86;29680;-68
2022/10/16 13:14:04;;;;;;;4.47;4.03;;;;;;;22.26;63.62;100571.64;2011179;87;31154;-67
2022/10/16 13:17:44;;;;;;;4.67;4.10;;;;;;;22.21;63.71;100570.72;1991954;86;34443;-70
2022/10/16 13:21:17;;;;;;;7.40;6.70;;;;;;;22.15;63.46;100570.80;1996845;86;29712;-66
2022/10/16 13:24:49;;;;;;;8.65;6.67;;;;;;;22.14;63.42;100569.59;2010680;87;27898;-62
2022/10/16 13:28:03;;;;;;;7.30;5.83;;;;;;;22.08;63.40;100571.05;2015982;86;29956;-69
2022/10/16 13:31:05;;;;;;;6.33;5.67;;;;;;;21.99;63.65;100580.08;2018762;86;31147;-65
2022/10/16 13:34:21;;;;;;;7.15;5.85;;;;;;;21.92;63.41;100583.03;2011957;86;35036;-69
2022/10/16 13:37:25;;;;;;;7.35;6.58;;;;;;;21.88;63.51;100587.89;2019480;86;29374;-67
2022/10/16 13:40:26;;;;;;;6.75;6.03;;;;;;;21.81;63.32;100588.12;2016976;86;28334;-70
2022/10/16 13:43:50;;;;;;;8.28;6.35;;;;;;;21.75;63.63;100588.20;2023161;86;29485;-70
2022/10/16 13:47:03;;;;;;;8.60;6.70;;;;;;;21.70;63.63;100585.02;2033984;86;31093;-66
2022/10/16 13:50:15;;;;;;;6.80;5.58;;;;;;;21.64;63.81;100591.03;2032831;85;34228;-68
2022/10/16 13:53:16;;;;;;;9.80;6.22;;;;;;;21.60;63.95;100589.55;2027924;85;29399;-71
2022/10/16 13:56:21;;;;;;;9.68;6.42;;;;;;;21.56;64.19;100584.89;2028356;85;27827;-71
2022/10/16 13:59:28;;;;;;;8.25;7.37;;;;;;;21.56;64.31;100584.89;2018924;85;28920;-69
2022/10/16 14:02:35;;;;;;;7.72;6.53;;;;;;;21.55;64.36;100592.22;2017127;85;31869;-72
2022/10/16 14:05:49;;;;;;;8.43;6.55;;;;;;;21.54;64.29;100601.41;2039697;86;33008;-70
2022/10/16 14:08:57;;;;;;;;;;;;;;;21.51;64.44;100603.55;2020341;86;29389;-68
2022/10/16 14:12:03;;;;;;;8.35;5.75;;;;;;;21.49;64.38;100616.45;2008892;86;28045;-71
2022/10/16 14:15:09;;;;;;;6.35;5.67;;;;;;;21.42;64.30;100617.52;2025330;85;28703;-66
2022/10/16 14:18:22;;;;;;;8.05;6.35;;;;;;;21.34;64.37;100616.85;2035726;85;31190;-65
2022/10/16 14:21:24;;;;;;;7.80;6.47;;;;;;;21.27;64.50;100615.67;2034349;86;32973;-66
2022/10/16 14:24:33;;;;;;;5.85;4.85;;;;;;;21.17;64.64;100619.72;2017120;85;29437;-66
2022/10/16 14:27:36;;;;;;;8.00;5.90;;;;;;;21.13;64.72;100618.78;2034797;85;27558;-70
2022/10/16 14:30:59;;;;;;;8.28;5.22;;;;;;;21.11;64.88;100624.34;2046398;85;29013;-66
2022/10/16 14:34:03;;;;;;;7.72;4.78;;;;;;;21.09;65.13;100616.31;2030695;86;31479;-74
2022/10/16 14:37:23;;;;;;;4.75;4.25;;;;;;;21.06;65.14;100612.50;2031776;85;32983;-68